Monroeville, Indiana
Current Conditions -  °F | °C
As of 2:54 PM on Monday 24 Nov 2014 (Local Time) from KFWA Reporting Station
Overcast Overcast  
Wind Chill: 26°   Ceiling: 1800
Heat Index: 38°   Visibility: 10mi
Dew Point: 32°   Wind: 28mph
Humidity: 79%   Direction: 230°SW
Pressure: 29.52"   Gusts: 40mph
Location:  40.97°N, 84.87°W
Report Text: KFWA 241954Z 23024G35KT 10SM OVC018 03/00 A2952 RMK AO2 PK WND 23044/1904 SLP998 T00330000
Loading
Personal Weather Stations






























Interactive Weather Map New forecast layout! Learn more

10-Day Weather Forecast

Advertisements
Track Severe Weather on mobile